Enter the Airport ICAO Code

Search by Airport or City

Current Weather

ZGGG | Guangzhou Baiyun International Airport

Guangzhou, Guangdong, China

Last Update 18 Minutes Ago

Mostly Cloudy Sky

Temperature of 16 ºC

Light to Moderate Winds from North

Temperature

16 ºC

Dew Point Temperature

09 ºC

Relative Humidity

63.3 %

Wind Direction

North (020º, Without Significant Variations)

Wind Velocity

11 km/h (3 kt)

Gusts

None

Visibility

Greater than 10 Kilometers

Sea Level Pressure

1018 hPa (Hectopascals)

Layers of Clouds

60% to 90% of Sky Covered from 914 mts (3000 ft) Above Ground Level.

METAR ZGGG 270300Z 02003MPS 9999 BKN030 16/09 Q1018 NOSIG

Weather Forecast

ZGGG | Guangzhou Baiyun International Airport

Guangzhou, Guangdong, China

Forecast valid for the next 21 Hours

From now on it is expected:

Completely Cloudy Sky

Light to Moderate Winds from North

Maximum Temperature

22 ºC in 4 Hours

Minimum Temperature

16 ºC in 19 Hours

TAF ZGGG 262101Z 2700/2724 36004MPS 8000 OVC030 TX22/2707Z TN16/2722Z